Portada
METAR-TAF:

METAR-TAF

Aeroports :

Indore, Índia

latitud: 22-43N, longitud: 075-48E, altitud: 561 m

Observació

L'informe es va fer fa 23 minuts, a les 06:00 UTC
Vent 8 kt del Est/Nord-Est
Temperatura 21°C
Humitat 69%
Pressió 1019 hPa
Visibilitat: 2000 m
calitja

METAR: VAID 070600Z 07008KT 2000 HZ NSC 21/15 Q1019 NOSIG

Hora: 11:53 (06:23 UTC)

Pronòstic

L'informe es va fer fa 1 hora i 23 minuts, a les 05:00 UTC
Pronòstic vàlid del 07 a les 06 UTC al 07 a les 15 UTC
Vent 8 kt del Est/Nord-Est
Visibilitat: 1500 m
boirina, calitja
Evolucionant progressivament
l' 07 a les 08 UTC al 07 a les 10 UTC
Visibilitat: 2000 m
boirina, calitja

TAF: VAID 070500Z 0706/0715 07008KT 1500 BR HZ NSC BECMG 0708/0710 2000 BR HZ

Observacions i pronòstics meteorològics de més de 4000 aeroports (METAR i TAF).

Les estacions disponibles són els punts grocs i vermells al mapa.

Posi el ratolí al punt desitjat per veure el nom de l'estació.

Feu clic per veure les observacions i els pronòstics meteorològics.

Per canviar el mapa: feu clic els botons verds amb una creu de color negre per apropar; al botó verd amb un guió per allunyar la imatge; o en les fletxes verdes per a mapes adjacents.


METAR-TAF: